Eunola, Alabama
Current Conditions -  °F | °C
As of 10:15 AM on Tuesday 21 Oct 2014 (Local Time) from KEDN Reporting Station
Clear Clear  
Wind Chill: 68°   Ceiling: Unl
Heat Index: 68°   Visibility: 10mi
Dew Point: 52°   Wind: 3mph
Humidity: 56%   Direction: 20°NNE
Pressure: 30.05"   Gusts: NA
Location:  31.0669°N, 85.9172°W
Report Text: KEDN 211515Z AUTO 02003KT 10SM CLR 20/11 A3005 RMK AO2
Loading
Personal Weather Stations






























Interactive Weather Map New forecast layout! Learn more

10-Day Weather Forecast

Advertisements
Track Severe Weather on mobile